createdAt,value
2023-05-08T00:00:51.661Z,9.70
2023-05-08T00:03:21.389Z,9.70
2023-05-08T00:05:49.520Z,9.70
2023-05-08T00:08:18.057Z,9.60
2023-05-08T00:10:46.051Z,9.60
2023-05-08T00:13:14.195Z,9.60
2023-05-08T00:15:42.370Z,9.60
2023-05-08T00:18:11.237Z,9.60
2023-05-08T00:20:41.712Z,9.60
2023-05-08T00:23:09.806Z,9.50
2023-05-08T00:25:38.116Z,9.50
2023-05-08T00:28:06.135Z,9.50
2023-05-08T00:30:34.163Z,9.50
2023-05-08T00:33:02.768Z,9.50
2023-05-08T00:35:31.091Z,9.50
2023-05-08T00:38:00.484Z,9.40
2023-05-08T00:40:28.870Z,9.40
2023-05-08T00:42:56.855Z,9.50
2023-05-08T00:45:24.928Z,9.50
2023-05-08T00:47:53.502Z,9.50
2023-05-08T00:50:21.730Z,9.50
2023-05-08T00:52:50.979Z,9.50
2023-05-08T00:55:21.502Z,9.50
2023-05-08T00:57:50.154Z,9.50
2023-05-08T01:00:19.616Z,9.50
2023-05-08T01:02:48.386Z,9.50
2023-05-08T01:05:16.658Z,9.50
2023-05-08T01:07:45.170Z,9.50
2023-05-08T01:10:13.624Z,9.50
2023-05-08T01:13:01.391Z,9.50
2023-05-08T01:15:36.118Z,9.50
2023-05-08T01:18:12.458Z,9.50
2023-05-08T01:20:47.871Z,9.50
2023-05-08T01:27:12.360Z,9.60
2023-05-08T01:30:21.273Z,9.60
2023-05-08T01:32:57.923Z,9.60
2023-05-08T01:35:33.816Z,9.60
2023-05-08T01:38:09.681Z,9.50
2023-05-08T01:40:54.796Z,9.60
2023-05-08T01:43:31.277Z,9.60
2023-05-08T01:46:03.988Z,9.50
2023-05-08T01:48:36.660Z,9.50
2023-05-08T01:51:08.129Z,9.50
2023-05-08T01:53:40.194Z,9.50
2023-05-08T01:56:13.420Z,9.50
2023-05-08T01:58:44.047Z,9.40
2023-05-08T02:01:13.621Z,9.40
2023-05-08T02:03:45.692Z,9.30
2023-05-08T02:06:16.784Z,9.30
2023-05-08T02:08:47.234Z,9.20
2023-05-08T02:11:17.527Z,9.20
2023-05-08T02:13:49.047Z,9.10
2023-05-08T02:16:19.178Z,9.10
2023-05-08T02:18:53.110Z,9.10
2023-05-08T02:21:23.233Z,9.00
2023-05-08T02:23:53.251Z,9.00
2023-05-08T02:26:23.481Z,9.00
2023-05-08T02:28:52.873Z,8.90
2023-05-08T02:31:21.827Z,8.90
2023-05-08T02:33:53.736Z,8.80
2023-05-08T02:36:23.196Z,8.80
2023-05-08T02:38:54.074Z,8.80
2023-05-08T02:41:27.640Z,8.80
2023-05-08T02:43:56.488Z,8.70
2023-05-08T02:46:31.015Z,8.70
2023-05-08T02:49:05.931Z,8.70
2023-05-08T02:51:44.835Z,8.70
2023-05-08T02:54:19.945Z,8.70
2023-05-08T02:56:57.033Z,8.70
2023-05-08T02:59:32.563Z,8.60
2023-05-08T03:02:07.798Z,8.60
2023-05-08T03:04:43.045Z,8.50
2023-05-08T03:07:11.203Z,8.50
2023-05-08T03:09:45.652Z,8.50
2023-05-08T03:12:17.225Z,8.50
2023-05-08T03:14:54.266Z,8.50
2023-05-08T03:17:23.878Z,8.40
2023-05-08T03:20:00.835Z,8.40
2023-05-08T03:22:31.318Z,8.40
2023-05-08T03:25:02.592Z,8.40
2023-05-08T03:27:31.261Z,8.40
2023-05-08T03:30:00.387Z,8.30
2023-05-08T03:32:31.061Z,8.30
2023-05-08T03:35:03.628Z,8.30
2023-05-08T03:37:32.269Z,8.30
2023-05-08T03:40:01.104Z,8.30
2023-05-08T03:42:31.611Z,8.30
2023-05-08T03:45:01.682Z,8.30
2023-05-08T03:47:30.527Z,8.20
2023-05-08T03:49:59.979Z,8.20
2023-05-08T03:52:30.266Z,8.20
2023-05-08T03:54:58.438Z,8.20
2023-05-08T03:57:31.763Z,8.10
2023-05-08T04:00:05.363Z,8.10
2023-05-08T04:02:48.077Z,8.10
2023-05-08T04:05:24.268Z,8.10
2023-05-08T04:07:57.842Z,8.10
2023-05-08T04:10:30.454Z,8.10
2023-05-08T04:13:05.643Z,8.10
2023-05-08T04:15:40.800Z,8.10
2023-05-08T04:18:11.613Z,8.10
2023-05-08T04:20:43.632Z,8.10
2023-05-08T04:23:16.346Z,8.10
2023-05-08T04:25:45.891Z,8.10
2023-05-08T04:28:14.440Z,8.10
2023-05-08T04:30:42.982Z,8.10
2023-05-08T04:33:11.946Z,8.10
2023-05-08T04:35:40.709Z,8.10
2023-05-08T04:38:09.130Z,8.10
2023-05-08T04:40:39.488Z,8.10
2023-05-08T04:43:08.573Z,8.10
2023-05-08T04:45:36.602Z,8.20
2023-05-08T04:48:05.412Z,8.20
2023-05-08T04:50:33.734Z,8.20
2023-05-08T04:53:01.804Z,8.20
2023-05-08T04:55:30.361Z,8.30
2023-05-08T04:58:00.198Z,8.30
2023-05-08T05:00:28.683Z,8.40
2023-05-08T05:02:57.068Z,8.40
2023-05-08T05:05:25.334Z,8.50
2023-05-08T05:07:53.786Z,8.50
2023-05-08T05:10:22.902Z,8.70
2023-05-08T05:12:51.748Z,8.70
2023-05-08T05:15:22.730Z,8.80
2023-05-08T05:17:51.015Z,8.90
2023-05-08T05:20:19.346Z,8.90
2023-05-08T05:22:47.696Z,9.00
2023-05-08T05:25:16.043Z,9.10
2023-05-08T05:27:44.225Z,9.20
2023-05-08T05:30:13.176Z,9.30
2023-05-08T05:32:43.286Z,9.50
2023-05-08T05:35:12.111Z,9.70
2023-05-08T05:37:40.699Z,9.80
2023-05-08T05:40:13.120Z,9.90
2023-05-08T05:42:41.493Z,10.10
2023-05-08T05:45:11.515Z,10.10
2023-05-08T05:47:45.234Z,10.30
2023-05-08T05:50:14.800Z,10.40
2023-05-08T05:52:43.029Z,10.50
2023-05-08T05:55:11.856Z,10.70
2023-05-08T05:57:40.313Z,10.80
2023-05-08T06:00:09.446Z,11.00
2023-05-08T06:02:44.197Z,11.20
2023-05-08T06:05:18.977Z,11.30
2023-05-08T06:07:47.518Z,11.40
2023-05-08T06:10:15.633Z,11.50
2023-05-08T06:12:43.765Z,11.50
2023-05-08T06:15:14.934Z,11.50
2023-05-08T06:17:44.901Z,11.60
2023-05-08T06:20:14.303Z,11.70
2023-05-08T06:22:43.782Z,11.80
2023-05-08T06:25:12.483Z,11.80
2023-05-08T06:30:27.040Z,11.90
2023-05-08T06:32:55.249Z,12.00
2023-05-08T06:35:23.362Z,12.10
2023-05-08T06:37:53.119Z,12.20
2023-05-08T06:40:21.483Z,12.30
2023-05-08T06:42:49.565Z,12.40
2023-05-08T06:45:18.453Z,12.60
2023-05-08T06:47:46.505Z,12.80
2023-05-08T06:50:14.651Z,13.00
2023-05-08T06:52:43.081Z,13.10
2023-05-08T06:55:12.740Z,13.50
2023-05-08T06:57:40.827Z,13.70
2023-05-08T07:00:10.687Z,14.00
2023-05-08T07:02:38.944Z,14.10
2023-05-08T07:05:07.985Z,14.10
2023-05-08T07:07:36.426Z,14.40
2023-05-08T07:10:05.899Z,14.50
2023-05-08T07:12:38.609Z,14.60
2023-05-08T07:15:17.694Z,14.70
2023-05-08T07:17:52.933Z,14.80
2023-05-08T07:20:21.644Z,14.80
2023-05-08T07:22:49.874Z,14.80
2023-05-08T07:25:18.409Z,14.80
2023-05-08T07:27:47.802Z,15.00
2023-05-08T07:30:16.475Z,15.00
2023-05-08T07:32:44.922Z,15.00
2023-05-08T07:35:13.387Z,15.10
2023-05-08T07:37:41.570Z,15.30
2023-05-08T07:40:10.508Z,15.60
2023-05-08T07:42:45.026Z,15.70
2023-05-08T07:45:15.339Z,15.80
2023-05-08T07:47:50.828Z,15.80
2023-05-08T07:50:19.733Z,15.80
2023-05-08T07:52:49.834Z,15.70
2023-05-08T07:55:18.397Z,15.70
2023-05-08T07:57:47.320Z,15.90
2023-05-08T08:00:17.813Z,16.20
2023-05-08T08:02:46.425Z,16.60
2023-05-08T08:05:15.215Z,16.80
2023-05-08T08:07:43.609Z,16.80
2023-05-08T08:10:12.433Z,16.80
2023-05-08T08:12:40.960Z,16.90
2023-05-08T08:15:09.961Z,16.80
2023-05-08T08:17:39.476Z,16.80
2023-05-08T08:20:09.065Z,16.80
2023-05-08T08:22:38.984Z,16.70
2023-05-08T08:25:07.979Z,16.60
2023-05-08T08:27:36.375Z,16.80
2023-05-08T08:30:16.319Z,17.00
2023-05-08T08:32:47.402Z,17.30
2023-05-08T08:35:16.803Z,17.70
2023-05-08T08:37:45.796Z,18.00
2023-05-08T08:40:14.282Z,18.30
2023-05-08T08:42:42.389Z,18.50
2023-05-08T08:45:11.823Z,18.70
2023-05-08T08:47:41.816Z,18.90
2023-05-08T08:50:14.620Z,19.10
2023-05-08T08:52:52.244Z,19.20
2023-05-08T08:55:23.250Z,19.30
2023-05-08T08:58:01.329Z,19.40
2023-05-08T09:00:32.404Z,19.40
2023-05-08T09:03:01.152Z,19.50
2023-05-08T09:05:31.714Z,19.70
2023-05-08T09:08:00.381Z,20.10
2023-05-08T09:10:28.653Z,20.40
2023-05-08T09:12:57.005Z,20.50
2023-05-08T09:15:25.154Z,20.70
2023-05-08T09:17:53.556Z,21.10
2023-05-08T09:20:22.424Z,21.30
2023-05-08T09:22:53.891Z,21.80
2023-05-08T09:25:22.525Z,21.90
2023-05-08T09:27:50.795Z,21.90
2023-05-08T09:30:18.862Z,21.80
2023-05-08T09:32:47.393Z,21.80
2023-05-08T09:35:15.717Z,21.90
2023-05-08T09:37:44.639Z,21.70
2023-05-08T09:40:18.874Z,21.80
2023-05-08T09:42:47.132Z,22.00
2023-05-08T09:45:29.395Z,21.80
2023-05-08T09:47:57.632Z,21.40
2023-05-08T09:50:26.620Z,21.50
2023-05-08T09:52:54.971Z,21.50
2023-05-08T09:55:24.506Z,21.80
2023-05-08T09:57:57.848Z,22.30
2023-05-08T10:00:26.686Z,22.90
2023-05-08T10:02:57.909Z,23.50
2023-05-08T10:05:29.754Z,23.90
2023-05-08T10:07:58.934Z,23.90
2023-05-08T10:10:30.788Z,23.70
2023-05-08T10:13:00.325Z,23.70
2023-05-08T10:15:32.123Z,23.50
2023-05-08T10:18:06.434Z,23.60
2023-05-08T10:20:36.585Z,23.80
2023-05-08T10:23:11.295Z,23.80
2023-05-08T10:25:45.760Z,23.50
2023-05-08T10:28:19.708Z,23.80
2023-05-08T10:30:50.642Z,24.50
2023-05-08T10:33:22.455Z,25.30
2023-05-08T10:35:50.967Z,26.10
2023-05-08T10:38:20.241Z,26.80
2023-05-08T10:40:52.906Z,27.00
2023-05-08T10:43:22.034Z,26.90
2023-05-08T10:45:50.403Z,27.20
2023-05-08T10:48:29.830Z,28.40
2023-05-08T10:51:04.132Z,29.50
2023-05-08T10:53:40.993Z,30.10
2023-05-08T10:56:10.534Z,29.90
2023-05-08T10:58:40.386Z,30.80
2023-05-08T11:01:18.628Z,31.50
2023-05-08T11:03:50.539Z,32.70
2023-05-08T11:06:39.772Z,33.70
2023-05-08T11:09:08.437Z,34.90
2023-05-08T11:11:40.319Z,36.10
2023-05-08T11:14:14.635Z,36.80
2023-05-08T11:17:07.926Z,36.40
2023-05-08T11:19:37.489Z,36.50
2023-05-08T11:22:24.451Z,36.40
2023-05-08T11:24:58.484Z,37.20
2023-05-08T11:27:39.224Z,38.00
2023-05-08T11:30:34.937Z,39.10
2023-05-08T11:33:16.843Z,39.20
2023-05-08T11:35:50.528Z,39.00
2023-05-08T11:38:21.564Z,38.60
2023-05-08T11:40:53.129Z,38.80
2023-05-08T11:43:49.355Z,38.50
2023-05-08T11:46:18.929Z,38.70
2023-05-08T11:48:47.382Z,38.70
2023-05-08T11:51:19.460Z,38.60
2023-05-08T11:53:48.024Z,38.20
2023-05-08T11:56:16.135Z,39.00
2023-05-08T11:58:47.912Z,39.80
2023-05-08T12:01:20.806Z,41.00
2023-05-08T12:03:49.029Z,42.00
2023-05-08T12:06:19.732Z,42.10
2023-05-08T12:08:47.923Z,42.00
2023-05-08T12:11:24.451Z,42.10
2023-05-08T12:13:54.712Z,41.30
2023-05-08T12:16:24.544Z,41.50
2023-05-08T12:18:53.552Z,41.90
2023-05-08T12:21:22.695Z,42.20
2023-05-08T12:23:51.103Z,42.50
2023-05-08T12:26:19.519Z,43.30
2023-05-08T12:28:48.256Z,43.20
2023-05-08T12:31:17.918Z,42.20
2023-05-08T12:33:46.682Z,41.10
2023-05-08T12:36:15.450Z,40.20
2023-05-08T12:38:43.781Z,40.10
2023-05-08T12:41:12.409Z,40.80
2023-05-08T12:43:40.523Z,41.40
2023-05-08T12:46:14.663Z,41.70
2023-05-08T12:48:44.135Z,41.50
2023-05-08T12:51:12.712Z,42.20
2023-05-08T12:53:41.017Z,42.00
2023-05-08T12:56:09.485Z,42.30
2023-05-08T12:58:39.110Z,42.70
2023-05-08T13:01:13.200Z,42.50
2023-05-08T13:03:44.032Z,42.30
2023-05-08T13:06:21.892Z,41.90
2023-05-08T13:08:54.942Z,42.00
2023-05-08T13:11:31.600Z,42.30
2023-05-08T13:13:59.731Z,42.80
2023-05-08T13:16:27.974Z,43.90
2023-05-08T13:18:57.588Z,44.90
2023-05-08T13:21:27.801Z,44.40
2023-05-08T13:23:56.708Z,42.80
2023-05-08T13:26:25.791Z,43.10
2023-05-08T13:28:56.291Z,43.70
2023-05-08T13:31:24.876Z,44.00
2023-05-08T13:33:53.149Z,43.70
2023-05-08T13:36:22.642Z,43.50
2023-05-08T13:38:51.367Z,44.00
2023-05-08T13:41:19.567Z,43.60
2023-05-08T13:43:48.529Z,43.80
2023-05-08T13:46:16.644Z,43.70
2023-05-08T13:48:44.895Z,44.00
2023-05-08T13:51:12.919Z,44.30
2023-05-08T13:53:42.310Z,44.50
2023-05-08T13:56:10.624Z,44.20
2023-05-08T13:58:38.828Z,43.40
2023-05-08T14:01:21.938Z,42.20
2023-05-08T14:03:54.937Z,41.40
2023-05-08T14:06:23.262Z,41.10
2023-05-08T14:08:54.619Z,41.20
2023-05-08T14:11:25.287Z,40.90
2023-05-08T14:13:53.356Z,39.50
2023-05-08T14:16:21.522Z,38.40
2023-05-08T14:18:49.882Z,37.20
2023-05-08T14:21:17.931Z,35.40
2023-05-08T14:23:45.955Z,33.70
2023-05-08T14:26:15.978Z,32.20
2023-05-08T14:28:43.998Z,30.70
2023-05-08T14:31:12.216Z,29.40
2023-05-08T14:33:40.652Z,28.00
2023-05-08T14:36:12.559Z,27.00
2023-05-08T14:38:40.994Z,26.10
2023-05-08T14:41:09.007Z,25.30
2023-05-08T14:43:38.741Z,24.70
2023-05-08T14:46:07.831Z,24.00
2023-05-08T14:48:35.942Z,23.50
2023-05-08T14:51:03.989Z,23.10
2023-05-08T14:53:32.599Z,22.80
2023-05-08T14:56:01.035Z,22.40
2023-05-08T14:58:29.369Z,22.00
2023-05-08T15:00:58.992Z,21.80
2023-05-08T15:03:27.359Z,21.60
2023-05-08T15:05:55.670Z,21.50
2023-05-08T15:08:24.231Z,21.40
2023-05-08T15:10:52.295Z,21.20
2023-05-08T15:13:20.353Z,21.20
2023-05-08T15:15:48.776Z,21.10
2023-05-08T15:18:18.247Z,21.00
2023-05-08T15:20:46.298Z,20.90
2023-05-08T15:23:14.676Z,20.80
2023-05-08T15:25:42.733Z,20.70
2023-05-08T15:28:10.780Z,20.60
2023-05-08T15:30:39.186Z,20.60
2023-05-08T15:33:07.201Z,20.60
2023-05-08T15:35:36.712Z,20.50
2023-05-08T15:38:07.179Z,20.50
2023-05-08T15:40:35.554Z,20.50
2023-05-08T15:43:03.971Z,20.50
2023-05-08T15:45:32.361Z,20.40
2023-05-08T15:48:00.605Z,20.40
2023-05-08T15:50:29.930Z,20.40
2023-05-08T15:53:00.246Z,20.30
2023-05-08T15:55:28.329Z,20.20
2023-05-08T15:57:56.372Z,20.20
2023-05-08T16:00:27.345Z,20.20
2023-05-08T16:02:58.311Z,20.10
2023-05-08T16:05:26.827Z,20.10
2023-05-08T16:07:55.602Z,20.10
2023-05-08T16:10:25.013Z,20.10
2023-05-08T16:12:53.427Z,20.10
2023-05-08T16:15:21.565Z,20.00
2023-05-08T16:17:49.596Z,20.10
2023-05-08T16:20:17.893Z,20.00
2023-05-08T16:22:46.024Z,20.00
2023-05-08T16:25:14.291Z,20.00
2023-05-08T16:27:44.311Z,19.90
2023-05-08T16:30:13.183Z,19.90
2023-05-08T16:32:41.275Z,19.90
2023-05-08T16:35:11.449Z,19.90
2023-05-08T16:37:39.804Z,19.90
2023-05-08T16:40:09.338Z,19.80
2023-05-08T16:42:37.881Z,19.90
2023-05-08T16:45:08.639Z,19.90
2023-05-08T16:47:36.957Z,19.80
2023-05-08T16:50:05.505Z,19.80
2023-05-08T16:52:33.757Z,19.80
2023-05-08T16:55:01.731Z,19.70
2023-05-08T16:57:30.819Z,19.70
2023-05-08T16:59:58.841Z,19.70
2023-05-08T17:02:28.343Z,19.70
2023-05-08T17:04:56.778Z,19.60
2023-05-08T17:07:25.041Z,19.60
2023-05-08T17:09:56.998Z,19.50
2023-05-08T17:12:25.150Z,19.50
2023-05-08T17:14:53.320Z,19.40
2023-05-08T17:17:21.474Z,19.40
2023-05-08T17:19:50.896Z,19.40
2023-05-08T17:22:20.605Z,19.40
2023-05-08T17:24:48.859Z,19.30
2023-05-08T17:27:16.909Z,19.30
2023-05-08T17:29:44.961Z,19.30
2023-05-08T17:32:13.255Z,19.30
2023-05-08T17:34:41.414Z,19.20
2023-05-08T17:37:11.809Z,19.20
2023-05-08T17:39:40.107Z,19.10
2023-05-08T17:42:08.138Z,19.00
2023-05-08T17:44:36.776Z,19.00
2023-05-08T17:47:05.929Z,18.90
2023-05-08T17:49:33.994Z,18.80
2023-05-08T17:52:03.346Z,18.80
2023-05-08T17:54:32.980Z,18.70
2023-05-08T17:57:01.493Z,18.70
2023-05-08T17:59:29.478Z,18.60
2023-05-08T18:01:57.628Z,18.50
2023-05-08T18:04:26.173Z,18.40
2023-05-08T18:06:54.170Z,18.40
2023-05-08T18:09:22.218Z,18.30
2023-05-08T18:11:51.618Z,18.30
2023-05-08T18:14:19.811Z,18.20
2023-05-08T18:16:47.952Z,18.20
2023-05-08T18:19:15.977Z,18.20
2023-05-08T18:21:44.008Z,18.10
2023-05-08T18:24:12.171Z,18.00
2023-05-08T18:26:40.256Z,18.00
2023-05-08T18:29:09.769Z,17.90
2023-05-08T18:31:37.866Z,17.90
2023-05-08T18:34:05.951Z,17.80
2023-05-08T18:36:34.004Z,17.80
2023-05-08T18:39:02.324Z,17.70
2023-05-08T18:41:30.412Z,17.60
2023-05-08T18:44:01.382Z,17.50
2023-05-08T18:46:30.791Z,17.40
2023-05-08T18:48:59.040Z,17.40
2023-05-08T18:51:27.093Z,17.30
2023-05-08T18:53:57.132Z,17.20
2023-05-08T18:56:25.909Z,17.20
2023-05-08T18:58:54.811Z,17.10
2023-05-08T19:01:23.003Z,17.00
2023-05-08T19:03:52.597Z,17.00
2023-05-08T19:06:20.746Z,16.90
2023-05-08T19:08:48.849Z,16.90
2023-05-08T19:11:16.912Z,16.80
2023-05-08T19:13:45.020Z,16.80
2023-05-08T19:16:13.105Z,16.70
2023-05-08T19:18:41.107Z,16.70
2023-05-08T19:21:10.469Z,16.60
2023-05-08T19:23:38.686Z,16.60
2023-05-08T19:26:06.804Z,16.60
2023-05-08T19:28:35.085Z,16.60
2023-05-08T19:31:03.120Z,16.50
2023-05-08T19:33:31.158Z,16.50
2023-05-08T19:35:59.187Z,16.40
2023-05-08T19:38:28.660Z,16.40
2023-05-08T19:40:57.887Z,16.30
2023-05-08T19:43:26.681Z,16.30
2023-05-08T19:45:55.084Z,16.30
2023-05-08T19:48:23.514Z,16.20
2023-05-08T19:50:54.632Z,16.20
2023-05-08T19:53:23.394Z,16.10
2023-05-08T19:55:52.851Z,16.10
2023-05-08T19:58:20.870Z,16.10
2023-05-08T20:00:51.522Z,16.10
2023-05-08T20:03:20.293Z,16.10
2023-05-08T20:05:48.567Z,16.10
2023-05-08T20:08:16.885Z,16.10
2023-05-08T20:10:45.887Z,16.00
2023-05-08T20:13:15.353Z,16.00
2023-05-08T20:15:43.801Z,16.00
2023-05-08T20:18:12.133Z,16.00
2023-05-08T20:20:40.200Z,16.00
2023-05-08T20:23:08.702Z,15.90
2023-05-08T20:25:36.828Z,15.90
2023-05-08T20:28:05.010Z,15.80
2023-05-08T20:30:34.760Z,15.80
2023-05-08T20:33:04.954Z,15.70
2023-05-08T20:35:33.720Z,15.70
2023-05-08T20:38:02.057Z,15.70
2023-05-08T20:40:30.059Z,15.60
2023-05-08T20:42:58.112Z,15.60
2023-05-08T20:45:26.397Z,15.50
2023-05-08T20:47:55.843Z,15.50
2023-05-08T20:50:24.118Z,15.40
2023-05-08T20:52:52.506Z,15.40
2023-05-08T20:55:20.913Z,15.40
2023-05-08T20:57:49.189Z,15.30
2023-05-08T21:00:17.631Z,15.30
2023-05-08T21:02:45.954Z,15.20
2023-05-08T21:05:15.748Z,15.20
2023-05-08T21:07:44.206Z,15.20
2023-05-08T21:10:13.486Z,15.10
2023-05-08T21:12:44.392Z,15.10
2023-05-08T21:15:12.711Z,15.10
2023-05-08T21:17:41.300Z,15.10
2023-05-08T21:20:10.537Z,15.10
2023-05-08T21:22:40.176Z,15.00
2023-05-08T21:25:17.904Z,15.00
2023-05-08T21:27:46.231Z,15.00
2023-05-08T21:30:16.491Z,14.90
2023-05-08T21:32:46.051Z,14.80
2023-05-08T21:35:15.654Z,14.80
2023-05-08T21:37:45.408Z,14.80
2023-05-08T21:40:13.943Z,14.80
2023-05-08T21:42:42.007Z,14.80
2023-05-08T21:45:11.170Z,14.80
2023-05-08T21:47:39.763Z,14.80
2023-05-08T21:50:09.162Z,14.70
2023-05-08T21:52:37.222Z,14.70
2023-05-08T21:55:08.874Z,14.70
2023-05-08T21:57:37.241Z,14.60
2023-05-08T22:00:06.981Z,14.60
2023-05-08T22:02:35.152Z,14.60
2023-05-08T22:05:04.040Z,14.60
2023-05-08T22:07:32.394Z,14.50
2023-05-08T22:10:00.635Z,14.50
2023-05-08T22:12:30.095Z,14.50
2023-05-08T22:14:58.148Z,14.50
2023-05-08T22:17:26.564Z,14.50
2023-05-08T22:19:54.582Z,14.50
2023-05-08T22:22:22.898Z,14.40
2023-05-08T22:24:51.063Z,14.40
2023-05-08T22:27:19.118Z,14.40
2023-05-08T22:29:48.520Z,14.30
2023-05-08T22:32:16.641Z,14.30
2023-05-08T22:34:46.360Z,14.30
2023-05-08T22:37:14.630Z,14.20
2023-05-08T22:39:42.632Z,14.20
2023-05-08T22:42:11.479Z,14.20
2023-05-08T22:44:39.642Z,14.20
2023-05-08T22:47:09.409Z,14.10
2023-05-08T22:49:39.121Z,14.10
2023-05-08T22:52:07.776Z,14.10
2023-05-08T22:54:36.003Z,14.10
2023-05-08T22:57:04.503Z,14.00
2023-05-08T22:59:32.489Z,14.00
2023-05-08T23:02:00.534Z,13.90
2023-05-08T23:04:30.426Z,13.90
2023-05-08T23:06:58.533Z,13.90
2023-05-08T23:09:26.560Z,13.90
2023-05-08T23:11:54.907Z,13.80
2023-05-08T23:14:22.955Z,13.80
2023-05-08T23:16:51.115Z,13.70
2023-05-08T23:19:19.305Z,13.70
2023-05-08T23:21:48.972Z,13.70
2023-05-08T23:24:17.618Z,13.60
2023-05-08T23:26:48.629Z,13.60
2023-05-08T23:29:16.685Z,13.60
2023-05-08T23:31:44.771Z,13.50
2023-05-08T23:34:13.043Z,13.50
2023-05-08T23:36:41.083Z,13.50
2023-05-08T23:39:10.712Z,13.50
2023-05-08T23:41:38.704Z,13.40
2023-05-08T23:44:06.898Z,13.40
2023-05-08T23:46:37.019Z,13.40
2023-05-08T23:49:05.702Z,13.30
2023-05-08T23:51:34.025Z,13.30
2023-05-08T23:54:02.101Z,13.30
2023-05-08T23:56:31.997Z,13.30
2023-05-08T23:59:00.712Z,13.20
